Time;durP1;ratioP1;P1;durP2;ratioP2;P2;SDS_P1;SDS_P2;PMS_P1;PMS_P2;Temp;Humidity;BMP_temperature;BMP_pressure;BME280_temperature;BME280_humidity;BME280_pressure;Samples;Min_cycle;Max_cycle;Signal;HPM_P1;HPM_P2
2023/11/24 09:00:43;;;;;;;2.13;0.77;;;7.70;99.90;;;;;;628429;23;20626;-73
2023/11/24 09:03:12;;;;;;;2.57;0.50;;;7.70;99.90;;;;;;4952249;28;20258;-75
2023/11/24 09:05:41;;;;;;;2.87;0.40;;;7.70;99.90;;;;;;4947029;28;20227;-76
2023/11/24 09:08:08;;;;;;;3.23;0.60;;;7.60;99.90;;;;;;4956434;28;20231;-75
2023/11/24 09:10:35;;;;;;;1.87;0.67;;;7.60;99.90;;;;;;4922814;28;20260;-75
2023/11/24 09:13:02;;;;;;;4.70;0.50;;;7.50;99.90;;;;;;4937990;29;20212;-79
2023/11/24 09:15:29;;;;;;;3.53;0.77;;;7.60;99.90;;;;;;4920112;29;20210;-73
2023/11/24 09:17:58;;;;;;;2.33;0.50;;;7.60;99.90;;;;;;4918831;29;20261;-75
2023/11/24 09:20:25;;;;;;;4.30;0.60;;;7.50;99.90;;;;;;4918603;29;20209;-75
2023/11/24 09:22:53;;;;;;;0.70;0.30;;;7.50;99.90;;;;;;4923211;29;20201;-74
2023/11/24 09:25:21;;;;;;;5.23;0.50;;;7.60;99.90;;;;;;4921458;29;20257;-73
2023/11/24 09:27:48;;;;;;;1.47;0.60;;;7.50;99.90;;;;;;4918473;29;20241;-75
2023/11/24 09:30:15;;;;;;;2.77;0.60;;;7.50;99.90;;;;;;4918221;29;20543;-74
2023/11/24 09:32:43;;;;;;;3.97;0.57;;;7.60;99.90;;;;;;4918474;29;20261;-75
2023/11/24 09:35:11;;;;;;;4.50;0.70;;;7.60;99.90;;;;;;4931478;29;20738;-77
2023/11/24 09:37:38;;;;;;;2.17;1.20;;;7.60;99.90;;;;;;4955514;29;20315;-74
2023/11/24 09:40:12;;;;;;;3.03;0.70;;;7.50;99.90;;;;;;4928599;29;20205;-75
2023/11/24 09:43:09;;;;;;;1.10;0.40;;;7.30;99.90;;;;;;4917522;29;20220;-77
2023/11/24 09:45:38;;;;;;;4.37;0.60;;;7.10;99.90;;;;;;4924702;29;20209;-76
2023/11/24 09:48:08;;;;;;;4.30;0.90;;;7.00;99.90;;;;;;4935427;29;20236;-75
2023/11/24 09:50:39;;;;;;;0.40;0.20;;;7.00;99.90;;;;;;4934452;29;20241;-75
2023/11/24 09:53:12;;;;;;;1.30;0.50;;;7.10;99.90;;;;;;4935133;29;20208;-74
2023/11/24 09:55:40;;;;;;;1.07;0.43;;;7.10;99.90;;;;;;4936722;29;20209;-76
2023/11/24 09:58:08;;;;;;;2.13;0.50;;;7.10;99.90;;;;;;4935748;29;20232;-77
2023/11/24 10:00:39;;;;;;;1.40;0.30;;;7.10;99.90;;;;;;4948827;29;20582;-78
2023/11/24 10:03:08;;;;;;;0.93;0.43;;;7.20;99.90;;;;;;4942391;29;20632;-77
2023/11/24 10:05:36;;;;;;;2.70;0.80;;;7.10;99.90;;;;;;4934266;29;20564;-76
2023/11/24 10:08:03;;;;;;;2.07;0.40;;;7.10;99.90;;;;;;4934838;29;20786;-77
2023/11/24 10:10:30;;;;;;;1.07;0.40;;;7.10;99.90;;;;;;4933489;29;20255;-76
2023/11/24 10:12:59;;;;;;;0.87;0.40;;;7.00;99.90;;;;;;4932063;29;20203;-77
2023/11/24 10:15:26;;;;;;;1.53;0.40;;;7.10;99.90;;;;;;4932155;29;21387;-77
2023/11/24 10:17:53;;;;;;;1.80;0.30;;;7.20;99.90;;;;;;4941572;29;20319;-76
2023/11/24 10:20:22;;;;;;;0.70;0.30;;;7.10;99.90;;;;;;4935467;29;20205;-78
2023/11/24 10:22:51;;;;;;;1.97;0.47;;;7.10;99.90;;;;;;4949158;29;20211;-76
2023/11/24 10:25:21;;;;;;;8.47;0.50;;;7.00;99.90;;;;;;4926141;29;20222;-77
2023/11/24 10:27:48;;;;;;;1.67;0.33;;;7.00;99.90;;;;;;4934412;29;20236;-78
2023/11/24 10:30:17;;;;;;;2.77;0.43;;;7.00;99.90;;;;;;4935478;29;20240;-78
2023/11/24 10:32:47;;;;;;;1.30;0.60;;;7.00;99.90;;;;;;4936074;29;20212;-78
2023/11/24 10:35:14;;;;;;;1.60;0.60;;;7.00;99.90;;;;;;4924536;29;20209;-74
2023/11/24 10:37:41;;;;;;;1.67;0.40;;;7.10;99.90;;;;;;4916841;29;20316;-76
2023/11/24 10:40:15;;;;;;;2.80;0.50;;;7.20;99.90;;;;;;4917163;29;20220;-76
2023/11/24 10:42:47;;;;;;;4.43;0.50;;;7.20;99.90;;;;;;4917240;29;20213;-77
2023/11/24 10:45:18;;;;;;;0.60;0.30;;;7.10;99.90;;;;;;4916831;29;20264;-77
2023/11/24 10:47:59;;;;;;;2.93;0.30;;;7.10;99.90;;;;;;4917205;29;20600;-77
2023/11/24 10:50:27;;;;;;;3.90;0.30;;;7.10;99.90;;;;;;4916697;29;20243;-77
2023/11/24 10:53:07;;;;;;;5.40;0.97;;;7.20;99.90;;;;;;4916783;29;20609;-77
2023/11/24 10:55:37;;;;;;;2.63;0.30;;;7.30;99.90;;;;;;4917302;29;20209;-77
2023/11/24 10:58:06;;;;;;;1.17;0.40;;;7.40;99.90;;;;;;4917047;29;20710;-76
2023/11/24 11:00:36;;;;;;;1.87;0.40;;;7.50;99.90;;;;;;4917007;29;20683;-75
2023/11/24 11:03:05;;;;;;;0.93;0.40;;;7.60;99.90;;;;;;4916722;29;20213;-75
2023/11/24 11:05:44;;;;;;;0.97;0.20;;;7.60;99.90;;;;;;4916780;29;20577;-76
2023/11/24 11:08:18;;;;;;;2.40;0.47;;;7.70;99.90;;;;;;4917051;29;20257;-75
2023/11/24 11:11:06;;;;;;;3.10;0.67;;;7.60;99.90;;;;;;4916682;29;20241;-75
2023/11/24 11:13:35;;;;;;;1.60;0.43;;;7.60;99.90;;;;;;4917117;29;20209;-75
2023/11/24 11:16:04;;;;;;;3.90;0.83;;;7.70;99.90;;;;;;4916876;29;20680;-76
2023/11/24 11:18:33;;;;;;;0.30;0.20;;;7.60;99.90;;;;;;4916460;29;20577;-75
2023/11/24 11:21:24;;;;;;;4.30;0.50;;;7.50;99.90;;;;;;4916896;29;20265;-76
2023/11/24 11:24:03;;;;;;;3.13;0.37;;;7.40;99.90;;;;;;4916123;29;20269;-76
2023/11/24 11:26:51;;;;;;;1.47;0.40;;;7.30;99.90;;;;;;4916494;29;20209;-75
2023/11/24 11:29:23;;;;;;;3.43;0.30;;;7.40;99.90;;;;;;4916898;29;20209;-75
2023/11/24 11:31:51;;;;;;;2.10;0.43;;;7.40;99.90;;;;;;4915517;29;20229;-76
2023/11/24 11:34:20;;;;;;;1.33;0.30;;;7.30;99.90;;;;;;4920182;29;20223;-75
2023/11/24 11:37:11;;;;;;;9.20;3.97;;;7.30;99.90;;;;;;4941838;28;20208;-75
2023/11/24 11:39:47;;;;;;;3.07;0.90;;;7.20;99.90;;;;;;4946697;28;20233;-77
2023/11/24 11:42:16;;;;;;;1.70;0.60;;;7.30;99.90;;;;;;4930034;29;20205;-77
2023/11/24 11:44:46;;;;;;;9.67;2.60;;;7.10;99.90;;;;;;4934196;29;20201;-78
2023/11/24 11:47:20;;;;;;;8.33;2.80;;;7.00;99.90;;;;;;4935363;29;20236;-76
2023/11/24 11:49:53;;;;;;;8.93;2.30;;;7.00;99.90;;;;;;4934742;29;20205;-75
2023/11/24 11:52:21;;;;;;;2.97;0.37;;;7.00;99.90;;;;;;4934327;29;20290;-76
2023/11/24 11:54:51;;;;;;;17.73;5.13;;;7.10;99.90;;;;;;4932455;29;20209;-76
2023/11/24 11:57:21;;;;;;;2.33;1.13;;;7.00;99.90;;;;;;4934978;29;20237;-77
2023/11/24 11:59:49;;;;;;;5.43;0.87;;;7.00;99.90;;;;;;4935828;29;20243;-78
2023/11/24 12:02:17;;;;;;;5.80;1.47;;;7.00;99.90;;;;;;4935415;29;20768;-77
2023/11/24 12:04:45;;;;;;;5.60;0.80;;;7.10;99.90;;;;;;4935512;29;20209;-76
2023/11/24 12:07:13;;;;;;;3.17;0.60;;;7.10;99.90;;;;;;4935266;29;20225;-76
2023/11/24 12:09:41;;;;;;;3.83;0.93;;;7.20;99.90;;;;;;4935541;29;20209;-74
2023/11/24 12:12:10;;;;;;;5.93;1.07;;;7.30;99.90;;;;;;4935679;29;20219;-75
2023/11/24 12:14:41;;;;;;;8.53;3.53;;;7.40;99.90;;;;;;4935088;29;20219;-75
2023/11/24 12:17:09;;;;;;;2.80;0.93;;;7.30;99.90;;;;;;4935283;29;20284;-74
2023/11/24 12:19:37;;;;;;;6.27;0.90;;;7.40;99.90;;;;;;4935122;29;20308;-75
2023/11/24 12:22:06;;;;;;;5.17;1.10;;;7.40;99.90;;;;;;4934906;29;20222;-73
2023/11/24 12:24:36;;;;;;;14.57;2.10;;;7.50;99.90;;;;;;4935297;29;20239;-77
2023/11/24 12:27:03;;;;;;;3.77;1.67;;;7.50;99.90;;;;;;4935240;29;20213;-75
2023/11/24 12:29:30;;;;;;;2.80;0.70;;;7.60;99.90;;;;;;4935079;29;20208;-75
2023/11/24 12:31:58;;;;;;;1.83;0.50;;;7.50;99.90;;;;;;4935020;29;20237;-74
2023/11/24 12:34:29;;;;;;;0.87;0.50;;;7.30;99.90;;;;;;4935202;29;20213;-74
2023/11/24 12:36:56;;;;;;;3.10;0.90;;;7.40;99.90;;;;;;4934752;29;20624;-75
2023/11/24 12:39:30;;;;;;;2.23;0.53;;;7.40;99.90;;;;;;4934716;29;20212;-76
2023/11/24 12:41:58;;;;;;;1.33;0.40;;;7.40;99.90;;;;;;4936068;29;20220;-75
2023/11/24 12:44:27;;;;;;;1.87;0.50;;;7.40;99.90;;;;;;4938769;29;20244;-74
2023/11/24 12:47:15;;;;;;;2.50;0.90;;;7.30;99.90;;;;;;4938209;29;20216;-75
2023/11/24 12:49:57;;;;;;;2.73;0.40;;;7.50;99.90;;;;;;4938398;29;20205;-76
2023/11/24 12:52:24;;;;;;;2.27;0.60;;;7.50;99.90;;;;;;4938167;29;20299;-74
2023/11/24 12:54:51;;;;;;;5.07;0.73;;;7.50;99.90;;;;;;4938473;29;20300;-75
2023/11/24 12:57:18;;;;;;;12.90;3.77;;;7.40;99.90;;;;;;4938228;29;20264;-74
2023/11/24 12:59:45;;;;;;;6.30;0.87;;;7.40;99.90;;;;;;4938423;29;20205;-75
2023/11/24 13:02:15;;;;;;;2.20;0.63;;;7.40;99.90;;;;;;4937998;29;20319;-74
2023/11/24 13:04:42;;;;;;;0.90;0.40;;;7.50;99.90;;;;;;4938110;29;20209;-74
2023/11/24 13:07:09;;;;;;;7.17;0.73;;;7.70;99.90;;;;;;4938335;29;20592;-74
2023/11/24 13:09:36;;;;;;;4.00;0.60;;;7.80;99.90;;;;;;4938186;29;20208;-74
2023/11/24 13:12:04;;;;;;;2.53;0.80;;;7.80;99.90;;;;;;4937905;29;20305;-74
2023/11/24 13:14:33;;;;;;;3.00;0.67;;;7.80;99.90;;;;;;4938217;29;20217;-74
2023/11/24 13:17:00;;;;;;;5.80;1.43;;;7.80;99.90;;;;;;4937463;29;20209;-75
2023/11/24 13:19:28;;;;;;;4.03;1.27;;;7.80;99.90;;;;;;4938045;29;20290;-74
2023/11/24 13:21:56;;;;;;;1.87;0.50;;;7.90;99.90;;;;;;4938079;29;20213;-74
2023/11/24 13:24:24;;;;;;;7.53;1.00;;;7.90;99.90;;;;;;4938269;29;20209;-75
2023/11/24 13:26:52;;;;;;;4.20;2.30;;;8.00;99.90;;;;;;4937925;29;20215;-76
2023/11/24 13:29:19;;;;;;;1.83;0.60;;;8.00;99.90;;;;;;4938068;29;20266;-74
2023/11/24 13:31:46;;;;;;;1.27;0.53;;;8.00;99.90;;;;;;4937969;29;20240;-76
2023/11/24 13:34:14;;;;;;;3.10;0.40;;;8.10;99.90;;;;;;4939591;29;20613;-75
2023/11/24 13:36:45;;;;;;;2.10;0.60;;;8.20;99.90;;;;;;4938926;29;20208;-74
2023/11/24 13:39:14;;;;;;;1.47;0.50;;;8.30;99.90;;;;;;4938092;29;20209;-75
2023/11/24 13:41:42;;;;;;;2.13;0.53;;;8.20;99.90;;;;;;4938005;29;20240;-75
2023/11/24 13:44:11;;;;;;;4.43;0.53;;;8.10;99.90;;;;;;4938136;29;20232;-74
2023/11/24 13:46:38;;;;;;;6.93;0.83;;;8.20;99.90;;;;;;4937738;29;20299;-74
2023/11/24 13:49:08;;;;;;;1.83;0.60;;;8.30;99.90;;;;;;4937712;29;20237;-76
2023/11/24 13:51:35;;;;;;;5.77;0.60;;;8.30;99.90;;;;;;4937523;29;20241;-76
2023/11/24 13:54:04;;;;;;;1.13;0.40;;;8.20;99.90;;;;;;4936567;29;20608;-75
2023/11/24 13:56:31;;;;;;;1.50;0.40;;;8.20;99.90;;;;;;4937386;29;20243;-76
2023/11/24 13:58:58;;;;;;;1.17;0.23;;;8.20;99.90;;;;;;4936927;29;20658;-75
2023/11/24 14:01:26;;;;;;;3.13;0.70;;;8.20;99.90;;;;;;4936939;29;20292;-75
2023/11/24 14:03:55;;;;;;;3.70;0.40;;;8.00;99.90;;;;;;4937087;29;20293;-75
2023/11/24 14:06:22;;;;;;;2.73;0.50;;;7.90;99.90;;;;;;4937256;29;20359;-75
2023/11/24 14:08:50;;;;;;;2.10;0.43;;;7.90;99.90;;;;;;4936878;29;20763;-76
2023/11/24 14:11:18;;;;;;;3.27;0.50;;;7.80;99.90;;;;;;4936747;29;20240;-75
2023/11/24 14:13:45;;;;;;;4.17;1.83;;;7.70;99.90;;;;;;4936906;29;20668;-75
2023/11/24 14:16:12;;;;;;;1.57;0.53;;;7.70;99.90;;;;;;4936878;29;20216;-75
2023/11/24 14:18:41;;;;;;;2.17;0.50;;;7.70;99.90;;;;;;4936740;29;20228;-76
2023/11/24 14:21:08;;;;;;;8.67;0.97;;;7.70;99.90;;;;;;4936801;29;20257;-74
2023/11/24 14:23:35;;;;;;;2.80;0.70;;;7.60;99.90;;;;;;4937028;29;20677;-74
2023/11/24 14:26:03;;;;;;;5.77;1.07;;;7.50;99.90;;;;;;4936694;29;20256;-74
2023/11/24 14:28:31;;;;;;;4.07;0.40;;;7.50;99.90;;;;;;4936628;29;20738;-74
2023/11/24 14:30:58;;;;;;;7.33;1.13;;;7.50;99.90;;;;;;4936603;29;20315;-75
2023/11/24 14:33:25;;;;;;;3.80;1.97;;;7.50;99.90;;;;;;4936434;29;20580;-75
2023/11/24 14:35:52;;;;;;;3.43;1.23;;;7.60;99.90;;;;;;4936798;29;20258;-75
2023/11/24 14:38:21;;;;;;;4.90;1.27;;;7.60;99.90;;;;;;4936499;29;20279;-75
2023/11/24 14:40:50;;;;;;;3.97;0.50;;;7.90;99.90;;;;;;4936583;29;20208;-74
2023/11/24 14:43:17;;;;;;;2.97;0.47;;;7.90;99.90;;;;;;4936219;29;20263;-74
2023/11/24 14:45:47;;;;;;;3.90;1.80;;;7.80;99.90;;;;;;4936243;29;20205;-74
2023/11/24 14:48:16;;;;;;;4.60;1.17;;;7.70;99.90;;;;;;4936344;29;20233;-74
2023/11/24 14:50:44;;;;;;;2.00;1.00;;;7.60;99.90;;;;;;4936378;29;20288;-74
2023/11/24 14:53:13;;;;;;;4.70;0.90;;;7.60;99.90;;;;;;4936282;29;20553;-75
2023/11/24 14:55:40;;;;;;;3.77;0.50;;;7.60;99.90;;;;;;4936292;29;20221;-74
2023/11/24 14:58:08;;;;;;;3.67;0.47;;;7.60;99.90;;;;;;4936546;29;20237;-74
2023/11/24 15:00:35;;;;;;;2.73;0.70;;;7.60;99.90;;;;;;4936121;29;20212;-74
2023/11/24 15:03:08;;;;;;;3.20;0.70;;;7.50;99.90;;;;;;4935777;29;20664;-74
2023/11/24 15:05:38;;;;;;;2.73;0.50;;;7.40;99.90;;;;;;4935722;29;20267;-74
2023/11/24 15:08:07;;;;;;;1.17;0.27;;;7.40;99.90;;;;;;4936028;29;20228;-74
2023/11/24 15:10:35;;;;;;;1.80;0.80;;;7.50;99.90;;;;;;4935880;29;20205;-74
2023/11/24 15:13:07;;;;;;;4.43;0.57;;;7.50;99.90;;;;;;4935810;29;20279;-74
2023/11/24 15:15:37;;;;;;;3.03;0.60;;;7.50;99.90;;;;;;4936258;29;20209;-74
2023/11/24 15:18:08;;;;;;;4.80;0.70;;;7.40;99.90;;;;;;4935881;29;20305;-74
2023/11/24 15:20:39;;;;;;;6.23;0.50;;;7.30;99.90;;;;;;4935914;29;20572;-74
2023/11/24 15:23:07;;;;;;;2.57;0.57;;;6.80;99.90;;;;;;4935847;29;20295;-74
2023/11/24 15:25:37;;;;;;;2.83;0.60;;;6.50;99.90;;;;;;4935751;29;20216;-74
2023/11/24 15:28:12;;;;;;;3.20;0.40;;;6.40;99.90;;;;;;4935750;29;20284;-74
2023/11/24 15:30:39;;;;;;;3.10;0.47;;;6.10;99.90;;;;;;4935766;29;20659;-74
2023/11/24 15:33:08;;;;;;;3.43;0.70;;;6.10;99.90;;;;;;4935796;29;20272;-74
2023/11/24 15:35:36;;;;;;;5.37;1.03;;;6.10;99.90;;;;;;4935889;29;20213;-74
2023/11/24 15:38:03;;;;;;;1.60;0.70;;;6.00;99.90;;;;;;4935762;29;20699;-74
2023/11/24 15:40:30;;;;;;;1.43;0.40;;;5.90;99.90;;;;;;4935928;29;20212;-75
2023/11/24 15:42:57;;;;;;;1.53;0.53;;;6.00;99.90;;;;;;4936121;29;20216;-75
2023/11/24 15:45:27;;;;;;;1.80;0.67;;;6.00;99.90;;;;;;4935808;29;20243;-74
2023/11/24 15:47:58;;;;;;;5.57;0.70;;;6.00;99.90;;;;;;4935499;29;20727;-74
2023/11/24 15:50:29;;;;;;;12.10;3.30;;;6.10;99.90;;;;;;4935412;29;20209;-74
2023/11/24 15:52:57;;;;;;;11.50;2.57;;;6.10;99.90;;;;;;4935167;29;20703;-74
2023/11/24 15:55:28;;;;;;;1.90;0.83;;;6.20;99.90;;;;;;4935313;29;20587;-74
2023/11/24 15:57:55;;;;;;;1.43;0.60;;;6.20;99.90;;;;;;4935207;29;20233;-75
2023/11/24 16:00:33;;;;;;;2.37;0.50;;;6.30;99.90;;;;;;4935763;29;20553;-74
2023/11/24 16:03:00;;;;;;;3.90;1.00;;;6.30;99.90;;;;;;4935194;29;20227;-74
2023/11/24 16:05:32;;;;;;;0.87;0.50;;;6.40;99.90;;;;;;4935548;29;20208;-74
2023/11/24 16:08:04;;;;;;;2.00;0.40;;;6.30;99.90;;;;;;4935543;29;20260;-75
2023/11/24 16:10:36;;;;;;;5.17;0.93;;;6.20;99.90;;;;;;4935370;29;20212;-74
2023/11/24 16:13:04;;;;;;;4.90;1.20;;;6.00;99.90;;;;;;4935476;29;20255;-74
2023/11/24 16:15:30;;;;;;;2.30;0.60;;;5.90;99.90;;;;;;4935391;29;20312;-75
2023/11/24 16:17:57;;;;;;;7.27;0.60;;;5.90;99.90;;;;;;4937940;29;20729;-74
2023/11/24 16:20:25;;;;;;;4.53;1.47;;;5.90;99.90;;;;;;4939202;29;20275;-74
2023/11/24 16:22:54;;;;;;;7.43;1.83;;;6.00;99.90;;;;;;4939020;29;20212;-75
2023/11/24 16:25:22;;;;;;;2.63;0.63;;;5.90;99.90;;;;;;4939019;29;20213;-73
2023/11/24 16:27:51;;;;;;;4.77;1.00;;;6.00;99.90;;;;;;4939464;29;20228;-73
2023/11/24 16:30:18;;;;;;;2.93;1.00;;;6.00;99.90;;;;;;4938969;29;20213;-73
2023/11/24 16:32:46;;;;;;;2.33;0.60;;;6.00;99.90;;;;;;4951047;29;20236;-74
2023/11/24 16:35:17;;;;;;;2.47;0.50;;;6.00;99.90;;;;;;4950333;29;20233;-73
2023/11/24 16:37:46;;;;;;;3.10;0.67;;;6.00;99.90;;;;;;4923736;29;20701;-74
2023/11/24 16:40:15;;;;;;;2.20;0.60;;;6.10;99.90;;;;;;4929769;29;20220;-74
2023/11/24 16:42:42;;;;;;;1.43;0.40;;;6.30;99.90;;;;;;4940434;28;20212;-74
2023/11/24 16:45:15;;;;;;;3.97;0.60;;;6.30;99.90;;;;;;4958246;28;20214;-75
2023/11/24 16:47:42;;;;;;;4.37;0.93;;;6.30;99.90;;;;;;4943169;28;20295;-80
2023/11/24 16:50:09;;;;;;;3.03;0.60;;;6.00;99.90;;;;;;4943658;29;20216;-78
2023/11/24 16:52:40;;;;;;;5.63;1.37;;;5.90;99.90;;;;;;4936583;29;20717;-76
2023/11/24 16:55:08;;;;;;;1.97;0.47;;;5.70;99.90;;;;;;4936190;29;20231;-77
2023/11/24 16:57:37;;;;;;;4.10;1.03;;;5.70;99.90;;;;;;4936284;29;20292;-78
2023/11/24 17:00:05;;;;;;;1.77;0.57;;;5.70;99.90;;;;;;4944588;29;20302;-78
2023/11/24 17:02:33;;;;;;;9.50;0.63;;;5.70;99.90;;;;;;4941038;29;20256;-77
2023/11/24 17:05:03;;;;;;;4.77;0.53;;;5.80;99.90;;;;;;4936858;29;20209;-76
2023/11/24 17:07:30;;;;;;;1.03;0.83;;;5.80;99.90;;;;;;4936260;29;20627;-77
2023/11/24 17:09:57;;;;;;;4.47;0.83;;;5.80;99.90;;;;;;4936343;29;20244;-78
2023/11/24 17:12:25;;;;;;;4.70;1.43;;;5.90;99.90;;;;;;4936205;29;20240;-74
2023/11/24 17:14:54;;;;;;;5.60;1.03;;;5.90;99.90;;;;;;4936130;29;20220;-76
2023/11/24 17:17:21;;;;;;;4.43;1.17;;;5.80;99.90;;;;;;4935712;29;20232;-74
2023/11/24 17:19:48;;;;;;;2.20;0.70;;;5.90;99.90;;;;;;4935920;29;20272;-73
2023/11/24 17:22:15;;;;;;;2.20;0.80;;;6.10;99.90;;;;;;4925153;29;20297;-78
2023/11/24 17:24:42;;;;;;;4.60;0.90;;;6.00;99.90;;;;;;4917242;29;20205;-74
2023/11/24 17:27:09;;;;;;;3.70;0.87;;;5.90;99.90;;;;;;4919836;29;20321;-76
2023/11/24 17:29:36;;;;;;;3.17;0.80;;;5.80;99.90;;;;;;4915892;29;20292;-76
2023/11/24 17:32:04;;;;;;;0.73;0.30;;;5.80;99.90;;;;;;4926780;29;20244;-78
2023/11/24 17:34:33;;;;;;;3.67;0.40;;;5.70;99.90;;;;;;4935349;29;20241;-73
2023/11/24 17:37:01;;;;;;;2.47;0.63;;;5.70;99.90;;;;;;4930280;29;20216;-73
2023/11/24 17:39:28;;;;;;;4.00;0.80;;;5.70;99.90;;;;;;4924206;29;20207;-74
2023/11/24 17:41:55;;;;;;;4.57;1.17;;;5.70;99.90;;;;;;4929115;29;20260;-75
2023/11/24 17:44:21;;;;;;;1.23;0.67;;;5.80;99.90;;;;;;4928279;29;20220;-75
2023/11/24 17:46:48;;;;;;;3.17;0.60;;;5.70;99.90;;;;;;4935880;29;20213;-79
2023/11/24 17:49:18;;;;;;;2.77;0.80;;;5.70;99.90;;;;;;4935670;29;20224;-75
2023/11/24 17:51:45;;;;;;;0.60;0.50;;;5.60;99.90;;;;;;4931232;29;20657;-75
2023/11/24 17:54:12;;;;;;;7.20;0.67;;;5.50;99.90;;;;;;4919343;29;20214;-75
2023/11/24 17:56:39;;;;;;;3.73;0.63;;;5.70;99.90;;;;;;4922565;29;20246;-76
2023/11/24 17:59:06;;;;;;;11.80;3.27;;;5.70;99.90;;;;;;4919439;29;20236;-78
2023/11/24 18:01:33;;;;;;;5.03;1.30;;;5.80;99.90;;;;;;4925832;29;20248;-77
2023/11/24 18:04:00;;;;;;;1.63;0.73;;;5.90;99.90;;;;;;4938408;29;20675;-81
2023/11/24 18:06:29;;;;;;;1.50;0.70;;;6.10;99.90;;;;;;4936205;29;20271;-80
2023/11/24 18:08:57;;;;;;;1.03;0.60;;;6.20;99.90;;;;;;4935694;29;20703;-78
2023/11/24 18:11:25;;;;;;;1.47;0.60;;;6.10;99.90;;;;;;4935177;29;20568;-78
2023/11/24 18:13:52;;;;;;;5.90;0.90;;;6.10;99.90;;;;;;4931148;29;20240;-77
2023/11/24 18:16:19;;;;;;;4.37;1.10;;;6.10;99.90;;;;;;4933494;29;20213;-76
2023/11/24 18:18:46;;;;;;;4.40;0.90;;;6.00;99.90;;;;;;4925331;29;20324;-73
2023/11/24 18:21:14;;;;;;;5.97;0.70;;;5.90;99.90;;;;;;4934144;29;20643;-76
2023/11/24 18:23:44;;;;;;;5.17;1.03;;;6.00;99.90;;;;;;4932449;29;20571;-75
2023/11/24 18:26:11;;;;;;;6.43;1.73;;;5.90;99.90;;;;;;4934414;29;20751;-75
2023/11/24 18:28:38;;;;;;;1.20;0.70;;;5.80;99.90;;;;;;4933657;29;20259;-75
2023/11/24 18:31:05;;;;;;;6.87;1.10;;;5.80;99.90;;;;;;4922469;29;20240;-77
2023/11/24 18:33:32;;;;;;;5.43;1.27;;;5.60;99.90;;;;;;4931089;29;20237;-77
2023/11/24 18:36:00;;;;;;;7.17;1.10;;;5.60;99.90;;;;;;4936567;29;20292;-77
2023/11/24 18:38:29;;;;;;;3.10;0.67;;;5.70;99.90;;;;;;4934484;29;20220;-77
2023/11/24 18:40:59;;;;;;;4.47;0.80;;;5.70;99.90;;;;;;4935031;29;20667;-77
2023/11/24 18:43:28;;;;;;;7.87;1.10;;;5.60;99.90;;;;;;4933362;29;20640;-76
2023/11/24 18:45:56;;;;;;;22.20;7.93;;;5.70;99.90;;;;;;4935304;29;20299;-76
2023/11/24 18:48:23;;;;;;;5.03;1.93;;;5.80;99.90;;;;;;4928029;29;20225;-76
2023/11/24 18:50:50;;;;;;;5.83;2.40;;;5.80;99.90;;;;;;4934602;29;20216;-76
2023/11/24 18:53:17;;;;;;;2.57;1.27;;;5.70;99.90;;;;;;4929636;29;20762;-76
2023/11/24 18:55:44;;;;;;;8.70;1.47;;;5.60;99.90;;;;;;4935053;29;20668;-76
2023/11/24 18:58:13;;;;;;;14.03;1.87;;;5.60;99.90;;;;;;4931718;29;20272;-76
2023/11/24 19:00:40;;;;;;;4.33;1.53;;;5.80;99.90;;;;;;4935310;29;20213;-76
2023/11/24 19:03:07;;;;;;;8.17;1.57;;;5.80;99.90;;;;;;4932611;29;20212;-76
2023/11/24 19:05:34;;;;;;;4.87;0.70;;;5.90;99.90;;;;;;4934702;29;20616;-76
2023/11/24 19:08:01;;;;;;;3.77;1.20;;;5.90;99.90;;;;;;4938755;29;20232;-76
2023/11/24 19:10:28;;;;;;;4.67;0.87;;;5.80;99.90;;;;;;4935017;29;20209;-75
2023/11/24 19:12:55;;;;;;;2.80;1.20;;;5.80;99.90;;;;;;4934732;29;20236;-76
2023/11/24 19:15:24;;;;;;;3.87;1.20;;;5.70;99.90;;;;;;4935259;29;20212;-75
2023/11/24 19:17:51;;;;;;;6.73;1.07;;;5.70;99.90;;;;;;4934950;29;20228;-77
2023/11/24 19:20:19;;;;;;;1.47;0.70;;;5.70;99.90;;;;;;4937577;29;20300;-75
2023/11/24 19:22:46;;;;;;;10.00;0.97;;;5.70;99.90;;;;;;4935928;29;20212;-77
2023/11/24 19:25:13;;;;;;;2.67;1.00;;;5.80;99.90;;;;;;4935283;29;20687;-76
2023/11/24 19:27:40;;;;;;;3.97;1.60;;;5.80;99.90;;;;;;4936311;29;20340;-76
2023/11/24 19:30:16;;;;;;;5.10;0.97;;;5.80;99.90;;;;;;4936303;29;20201;-76
2023/11/24 19:32:44;;;;;;;6.97;1.13;;;5.90;99.90;;;;;;4936400;29;20239;-76
2023/11/24 19:35:11;;;;;;;9.80;1.73;;;5.80;99.90;;;;;;4935013;29;20268;-77
2023/11/24 19:37:38;;;;;;;2.47;0.90;;;5.90;99.90;;;;;;4935291;29;20307;-76
2023/11/24 19:40:08;;;;;;;6.23;1.13;;;5.90;99.90;;;;;;4935185;29;20209;-76
2023/11/24 19:42:35;;;;;;;4.87;1.10;;;6.00;99.90;;;;;;4934918;29;20217;-76
2023/11/24 19:45:02;;;;;;;8.87;1.23;;;6.10;99.90;;;;;;4934019;29;20201;-76
2023/11/24 19:47:29;;;;;;;4.57;1.17;;;6.10;99.90;;;;;;4934668;29;20759;-76
2023/11/24 19:49:57;;;;;;;9.30;1.67;;;6.10;99.90;;;;;;4934955;29;20212;-76
2023/11/24 19:52:24;;;;;;;2.40;0.80;;;6.10;99.90;;;;;;4936790;29;20275;-76
2023/11/24 19:54:51;;;;;;;2.33;0.90;;;5.90;99.90;;;;;;4938765;29;20248;-76
2023/11/24 19:57:18;;;;;;;3.70;2.07;;;5.90;99.90;;;;;;4938296;29;20319;-76
2023/11/24 19:59:45;;;;;;;7.03;1.17;;;5.80;99.90;;;;;;4938553;29;20255;-76
2023/11/24 20:02:12;;;;;;;2.80;0.70;;;5.70;99.90;;;;;;4938395;29;20288;-76
2023/11/24 20:04:41;;;;;;;6.20;0.87;;;5.80;99.90;;;;;;4939288;29;20260;-75
2023/11/24 20:07:09;;;;;;;2.73;0.80;;;5.80;99.90;;;;;;4939068;29;20275;-76
2023/11/24 20:09:37;;;;;;;3.70;0.70;;;5.70;99.90;;;;;;4938636;29;20691;-76
2023/11/24 20:12:04;;;;;;;3.63;0.80;;;5.60;99.90;;;;;;4938944;29;20205;-76
2023/11/24 20:14:31;;;;;;;4.23;0.90;;;5.70;99.90;;;;;;4938646;29;20240;-75
2023/11/24 20:16:58;;;;;;;6.87;1.47;;;5.70;99.90;;;;;;4938390;29;20617;-76
2023/11/24 20:19:25;;;;;;;4.60;1.20;;;5.80;99.90;;;;;;4938041;29;20205;-75
2023/11/24 20:21:52;;;;;;;3.93;0.97;;;5.90;99.90;;;;;;4938144;29;20201;-76
2023/11/24 20:24:20;;;;;;;2.57;0.90;;;6.00;99.90;;;;;;4938559;29;20283;-75
2023/11/24 20:26:47;;;;;;;7.43;1.07;;;5.90;99.90;;;;;;4938407;29;20256;-76
2023/11/24 20:29:15;;;;;;;1.80;0.67;;;6.00;99.90;;;;;;4938462;29;20209;-75
2023/11/24 20:31:43;;;;;;;4.00;1.30;;;6.00;99.90;;;;;;4937974;29;20216;-75
2023/11/24 20:34:10;;;;;;;3.03;1.13;;;6.00;99.90;;;;;;4937748;29;20236;-76
2023/11/24 20:36:37;;;;;;;8.07;0.97;;;6.10;99.90;;;;;;4938081;29;20212;-75
2023/11/24 20:39:05;;;;;;;5.03;0.60;;;6.00;99.90;;;;;;4938181;29;20268;-76
2023/11/24 20:41:39;;;;;;;3.83;0.90;;;6.00;99.90;;;;;;4938356;29;20292;-76
2023/11/24 20:44:08;;;;;;;6.07;1.07;;;5.90;99.90;;;;;;4938335;29;20212;-75
2023/11/24 20:46:35;;;;;;;5.33;1.00;;;5.90;99.90;;;;;;4938058;29;20219;-76
2023/11/24 20:49:03;;;;;;;3.50;0.73;;;5.80;99.90;;;;;;4938254;29;20229;-75
2023/11/24 20:51:30;;;;;;;7.90;2.27;;;5.80;99.90;;;;;;4938115;29;20213;-76
2023/11/24 20:53:57;;;;;;;8.47;1.03;;;5.90;99.90;;;;;;4938093;29;20643;-76
2023/11/24 20:56:27;;;;;;;3.47;0.50;;;6.00;99.90;;;;;;4937926;29;20568;-75
2023/11/24 20:58:56;;;;;;;2.47;0.70;;;6.10;99.90;;;;;;4937239;29;20587;-76
2023/11/24 21:01:23;;;;;;;3.47;0.70;;;6.30;99.90;;;;;;4937802;29;20691;-76
2023/11/24 21:03:50;;;;;;;1.93;0.57;;;6.40;99.90;;;;;;4922504;29;20241;-75
2023/11/24 21:06:17;;;;;;;3.03;0.90;;;6.50;99.90;;;;;;4927804;29;20204;-76
2023/11/24 21:08:44;;;;;;;4.47;0.60;;;6.30;99.90;;;;;;4937712;29;20229;-76
2023/11/24 21:11:11;;;;;;;3.50;0.80;;;6.30;99.90;;;;;;4938068;29;20635;-75
2023/11/24 21:13:38;;;;;;;2.80;0.50;;;6.30;99.90;;;;;;4937825;29;20244;-75
2023/11/24 21:16:07;;;;;;;3.10;0.60;;;6.10;99.90;;;;;;4938225;29;20264;-76
2023/11/24 21:18:34;;;;;;;2.00;0.50;;;6.10;99.90;;;;;;4937406;29;20228;-75
2023/11/24 21:21:02;;;;;;;5.60;1.53;;;6.20;99.90;;;;;;4937926;29;20295;-76
2023/11/24 21:23:28;;;;;;;4.60;0.77;;;6.20;99.90;;;;;;4937887;29;20201;-76
2023/11/24 21:25:56;;;;;;;2.47;0.97;;;6.20;99.90;;;;;;4937950;29;20220;-76
2023/11/24 21:28:23;;;;;;;5.97;1.40;;;6.40;99.90;;;;;;4937557;29;20225;-76
2023/11/24 21:30:50;;;;;;;2.77;0.80;;;6.40;99.90;;;;;;4937159;29;20201;-76
2023/11/24 21:33:19;;;;;;;2.00;0.63;;;6.40;99.90;;;;;;4936528;29;20312;-76
2023/11/24 21:35:46;;;;;;;3.70;0.80;;;6.40;99.90;;;;;;4937047;29;20240;-76
2023/11/24 21:38:18;;;;;;;5.67;0.90;;;6.40;99.90;;;;;;4936079;29;20225;-76
2023/11/24 21:40:45;;;;;;;7.53;0.83;;;6.40;99.90;;;;;;4936965;29;20358;-76
2023/11/24 21:43:12;;;;;;;5.40;0.60;;;6.50;99.90;;;;;;4936665;29;20204;-76
2023/11/24 21:45:40;;;;;;;7.93;1.03;;;6.50;99.90;;;;;;4937103;29;20256;-76
2023/11/24 21:48:08;;;;;;;11.13;1.07;;;6.50;99.90;;;;;;4936502;29;20231;-76
2023/11/24 21:50:37;;;;;;;1.80;0.83;;;6.50;99.90;;;;;;4937082;29;20223;-75
2023/11/24 21:53:05;;;;;;;6.23;1.30;;;6.60;99.90;;;;;;4933544;29;20223;-76
2023/11/24 21:55:33;;;;;;;3.70;1.30;;;6.60;99.90;;;;;;4936663;29;20213;-75
2023/11/24 21:58:00;;;;;;;3.17;0.80;;;6.40;99.90;;;;;;4934771;29;20229;-75
2023/11/24 22:00:28;;;;;;;4.23;0.90;;;6.30;99.90;;;;;;4936707;29;20283;-75
2023/11/24 22:03:00;;;;;;;4.40;0.90;;;6.40;99.90;;;;;;4936610;29;20666;-75
2023/11/24 22:05:29;;;;;;;2.93;0.73;;;6.60;99.90;;;;;;4936007;29;20209;-75